createdAt,value
2018-02-13T00:00:02.197Z,14.80
2018-02-13T00:02:29.087Z,16.80
2018-02-13T00:04:55.946Z,14.25
2018-02-13T00:07:23.086Z,15.02
2018-02-13T00:09:49.950Z,12.75
2018-02-13T00:12:17.080Z,15.05
2018-02-13T00:14:43.861Z,17.75
2018-02-13T00:17:10.702Z,14.63
2018-02-13T00:19:37.506Z,22.05
2018-02-13T00:22:04.545Z,16.20
2018-02-13T00:24:31.693Z,14.93
2018-02-13T00:26:58.511Z,19.40
2018-02-13T00:29:25.364Z,21.23
2018-02-13T00:31:52.192Z,19.53
2018-02-13T00:34:19.278Z,15.27
2018-02-13T00:36:46.114Z,16.37
2018-02-13T00:39:13.194Z,19.70
2018-02-13T00:41:40.318Z,16.30
2018-02-13T00:44:07.465Z,17.37
2018-02-13T00:46:34.268Z,19.23
2018-02-13T00:49:01.357Z,17.80
2018-02-13T00:51:28.142Z,18.65
2018-02-13T00:53:55.250Z,15.50
2018-02-13T00:56:22.390Z,20.25
2018-02-13T00:58:49.230Z,18.58
2018-02-13T01:01:16.036Z,22.85
2018-02-13T01:03:42.846Z,17.57
2018-02-13T01:06:09.687Z,25.23
2018-02-13T01:08:36.498Z,24.03
2018-02-13T01:11:03.563Z,21.02
2018-02-13T01:13:30.391Z,22.20
2018-02-13T01:15:57.230Z,21.70
2018-02-13T01:18:24.298Z,20.50
2018-02-13T01:20:51.341Z,21.90
2018-02-13T01:23:18.170Z,22.20
2018-02-13T01:25:45.008Z,22.95
2018-02-13T01:28:12.076Z,22.17
2018-02-13T01:30:38.899Z,26.48
2018-02-13T01:33:05.729Z,24.25
2018-02-13T01:35:32.511Z,23.85
2018-02-13T01:37:59.325Z,25.05
2018-02-13T01:40:26.391Z,25.95
2018-02-13T01:42:53.441Z,24.95
2018-02-13T01:45:20.291Z,25.48
2018-02-13T01:47:47.078Z,23.58
2018-02-13T01:50:26.060Z,24.70
2018-02-13T01:52:53.110Z,24.50
2018-02-13T01:55:20.150Z,27.40
2018-02-13T01:57:47.314Z,30.83
2018-02-13T02:00:14.091Z,25.60
2018-02-13T02:02:40.946Z,24.60
2018-02-13T02:05:07.774Z,30.98
2018-02-13T02:07:34.706Z,31.05
2018-02-13T02:10:01.831Z,26.10
2018-02-13T02:15:10.039Z,24.92
2018-02-13T02:17:36.868Z,31.98
2018-02-13T02:20:03.882Z,28.70
2018-02-13T02:22:30.738Z,30.33
2018-02-13T02:24:57.838Z,33.80
2018-02-13T02:27:24.683Z,27.42
2018-02-13T02:29:51.522Z,30.00
2018-02-13T02:32:18.352Z,31.00
2018-02-13T02:34:45.409Z,32.97
2018-02-13T02:37:12.258Z,32.90
2018-02-13T02:39:39.410Z,33.40
2018-02-13T02:42:06.457Z,29.10
2018-02-13T02:44:33.303Z,34.08
2018-02-13T02:47:00.095Z,34.63
2018-02-13T02:49:26.881Z,34.88
2018-02-13T02:51:53.730Z,29.70
2018-02-13T02:54:20.550Z,32.50
2018-02-13T02:56:47.368Z,34.10
2018-02-13T02:59:14.221Z,37.95
2018-02-13T03:01:41.308Z,29.77
2018-02-13T03:04:08.122Z,32.05
2018-02-13T03:06:35.195Z,33.67
2018-02-13T03:09:01.997Z,39.53
2018-02-13T03:11:28.826Z,33.13
2018-02-13T03:13:55.641Z,39.05
2018-02-13T03:16:22.466Z,40.70
2018-02-13T03:18:49.260Z,35.73
2018-02-13T03:21:16.126Z,37.30
2018-02-13T03:23:42.913Z,37.88
2018-02-13T03:26:09.709Z,33.08
2018-02-13T03:28:36.513Z,42.28
2018-02-13T03:31:03.310Z,38.88
2018-02-13T03:33:30.471Z,37.20
2018-02-13T03:35:57.296Z,43.55
2018-02-13T03:38:24.112Z,37.58
2018-02-13T03:40:51.214Z,39.72
2018-02-13T03:43:17.986Z,39.10
2018-02-13T03:45:44.834Z,38.78
2018-02-13T03:48:11.653Z,38.75
2018-02-13T03:50:38.504Z,42.70
2018-02-13T03:53:05.334Z,40.15
2018-02-13T03:55:32.161Z,40.58
2018-02-13T03:57:59.310Z,41.47
2018-02-13T04:00:26.133Z,43.58
2018-02-13T04:02:52.954Z,40.42
2018-02-13T04:05:19.756Z,39.92
2018-02-13T04:07:46.884Z,43.05
2018-02-13T04:10:13.730Z,40.17
2018-02-13T04:12:40.884Z,38.47
2018-02-13T04:15:07.677Z,38.92
2018-02-13T04:17:34.522Z,41.45
2018-02-13T04:20:01.343Z,44.97
2018-02-13T04:22:28.202Z,50.70
2018-02-13T04:24:55.303Z,45.80
2018-02-13T04:27:22.129Z,43.35
2018-02-13T04:29:49.190Z,45.58
2018-02-13T04:32:16.022Z,40.75
2018-02-13T04:34:42.805Z,43.15
2018-02-13T04:37:09.664Z,46.37
2018-02-13T04:39:36.777Z,42.90
2018-02-13T04:42:03.592Z,45.15
2018-02-13T04:44:30.768Z,39.75
2018-02-13T04:46:57.582Z,47.28
2018-02-13T04:49:24.422Z,40.40
2018-02-13T04:51:51.247Z,46.35
2018-02-13T04:54:18.040Z,41.20
2018-02-13T04:56:44.869Z,44.17
2018-02-13T04:59:11.673Z,48.72
2018-02-13T05:01:38.469Z,44.25
2018-02-13T05:04:05.306Z,42.47
2018-02-13T05:06:32.319Z,47.30
2018-02-13T05:08:59.393Z,42.05
2018-02-13T05:11:26.444Z,45.08
2018-02-13T05:13:53.267Z,50.95
2018-02-13T05:16:20.173Z,47.92
2018-02-13T05:18:47.287Z,47.25
2018-02-13T05:21:14.126Z,44.87
2018-02-13T05:23:40.917Z,44.13
2018-02-13T05:26:08.013Z,46.92
2018-02-13T05:28:34.829Z,55.05
2018-02-13T05:31:01.913Z,51.13
2018-02-13T05:33:28.705Z,46.05
2018-02-13T05:35:55.646Z,46.67
2018-02-13T05:38:22.433Z,48.55
2018-02-13T05:40:49.243Z,47.17
2018-02-13T05:43:16.044Z,45.22
2018-02-13T05:45:43.174Z,46.70
2018-02-13T05:48:10.006Z,50.35
2018-02-13T05:50:36.809Z,47.20
2018-02-13T05:53:03.606Z,47.40
2018-02-13T05:55:30.651Z,49.67
2018-02-13T05:57:57.802Z,46.53
2018-02-13T06:00:24.945Z,49.47
2018-02-13T06:02:51.822Z,45.25
2018-02-13T06:05:18.601Z,46.97
2018-02-13T06:07:45.389Z,52.88
2018-02-13T06:10:12.209Z,49.30
2018-02-13T06:12:39.042Z,53.63
2018-02-13T06:15:05.863Z,50.33
2018-02-13T06:17:32.686Z,48.80
2018-02-13T06:19:59.515Z,47.17
2018-02-13T06:22:26.313Z,50.88
2018-02-13T06:24:53.377Z,48.17
2018-02-13T06:27:20.213Z,49.35
2018-02-13T06:29:47.295Z,47.85
2018-02-13T06:32:14.420Z,56.53
2018-02-13T06:34:41.243Z,49.42
2018-02-13T06:37:08.078Z,49.90
2018-02-13T06:39:35.162Z,54.80
2018-02-13T06:42:02.039Z,52.27
2018-02-13T06:44:28.862Z,47.80
2018-02-13T06:46:55.653Z,48.72
2018-02-13T06:49:22.734Z,47.42
2018-02-13T06:51:49.517Z,49.13
2018-02-13T06:54:16.625Z,48.87
2018-02-13T06:56:43.470Z,54.80
2018-02-13T06:59:10.258Z,46.53
2018-02-13T07:01:37.073Z,52.00
2018-02-13T07:04:03.901Z,46.45
2018-02-13T07:06:30.687Z,48.42
2018-02-13T07:08:57.497Z,48.05
2018-02-13T07:11:24.371Z,48.28
2018-02-13T07:13:51.474Z,48.45
2018-02-13T07:16:18.622Z,46.90
2018-02-13T07:18:45.442Z,54.30
2018-02-13T07:21:12.253Z,51.27
2018-02-13T07:23:39.042Z,49.37
2018-02-13T07:26:06.098Z,51.78
2018-02-13T07:28:32.946Z,50.13
2018-02-13T07:30:59.727Z,52.60
2018-02-13T07:33:26.547Z,46.25
2018-02-13T07:35:53.569Z,51.22
2018-02-13T07:38:20.385Z,49.45
2018-02-13T07:40:47.192Z,48.47
2018-02-13T07:43:14.014Z,47.00
2018-02-13T07:45:40.817Z,50.80
2018-02-13T07:48:07.885Z,50.65
2018-02-13T07:50:34.852Z,48.80
2018-02-13T07:53:01.655Z,48.90
2018-02-13T07:55:28.475Z,54.17
2018-02-13T07:57:55.285Z,52.67
2018-02-13T08:00:22.115Z,47.38
2018-02-13T08:02:49.152Z,47.78
2018-02-13T08:05:15.998Z,46.10
2018-02-13T08:07:42.865Z,47.65
2018-02-13T08:10:09.623Z,47.40
2018-02-13T08:12:36.730Z,44.00
2018-02-13T08:15:03.602Z,47.53
2018-02-13T08:17:30.408Z,43.80
2018-02-13T08:19:57.196Z,49.13
2018-02-13T08:22:24.043Z,46.63
2018-02-13T08:24:50.861Z,48.67
2018-02-13T08:27:17.998Z,45.65
2018-02-13T08:29:44.827Z,44.40
2018-02-13T08:32:11.638Z,48.45
2018-02-13T08:34:38.474Z,41.88
2018-02-13T08:37:05.269Z,45.85
2018-02-13T08:39:32.313Z,42.97
2018-02-13T08:41:59.149Z,43.90
2018-02-13T08:44:26.202Z,41.53
2018-02-13T08:46:53.043Z,44.80
2018-02-13T08:49:19.829Z,41.25
2018-02-13T08:51:46.688Z,44.42
2018-02-13T08:54:13.461Z,40.85
2018-02-13T08:56:40.275Z,43.00
2018-02-13T08:59:07.097Z,39.93
2018-02-13T09:01:33.892Z,40.25
2018-02-13T09:04:00.718Z,40.47
2018-02-13T09:06:27.789Z,40.60
2018-02-13T09:08:54.581Z,40.97
2018-02-13T09:11:21.604Z,38.60
2018-02-13T09:13:48.413Z,40.63
2018-02-13T09:16:15.522Z,41.58
2018-02-13T09:18:42.330Z,42.88
2018-02-13T09:21:09.150Z,40.88
2018-02-13T09:23:36.310Z,39.53
2018-02-13T09:26:03.155Z,43.22
2018-02-13T09:28:29.945Z,41.20
2018-02-13T09:30:56.757Z,40.12
2018-02-13T09:33:23.585Z,41.22
2018-02-13T09:35:50.734Z,38.65
2018-02-13T09:38:17.549Z,37.55
2018-02-13T09:40:44.382Z,40.03
2018-02-13T09:43:11.183Z,40.00
2018-02-13T09:45:38.003Z,42.95
2018-02-13T09:48:04.826Z,40.70
2018-02-13T09:50:31.894Z,37.85
2018-02-13T09:52:58.696Z,38.37
2018-02-13T09:55:25.493Z,39.30
2018-02-13T09:57:52.345Z,40.35
2018-02-13T10:00:19.129Z,36.05
2018-02-13T10:02:46.228Z,37.40
2018-02-13T10:05:13.046Z,33.17
2018-02-13T10:07:39.829Z,35.97
2018-02-13T10:10:06.906Z,36.95
2018-02-13T10:12:33.966Z,35.10
2018-02-13T10:15:00.790Z,34.75
2018-02-13T10:17:27.596Z,35.00
2018-02-13T10:19:54.418Z,34.87
2018-02-13T10:22:21.220Z,33.92
2018-02-13T10:24:48.253Z,30.37
2018-02-13T10:27:15.359Z,36.20
2018-02-13T10:29:42.183Z,36.90
2018-02-13T10:32:09.245Z,34.40
2018-02-13T10:34:36.095Z,35.45
2018-02-13T10:37:03.243Z,35.00
2018-02-13T10:39:30.394Z,30.62
2018-02-13T10:41:57.542Z,32.40
2018-02-13T10:44:24.366Z,32.03
2018-02-13T10:46:51.438Z,32.13
2018-02-13T10:49:18.255Z,34.67
2018-02-13T10:51:45.099Z,32.28
2018-02-13T10:54:11.889Z,32.45
2018-02-13T10:56:38.701Z,31.92
2018-02-13T10:59:05.545Z,32.63
2018-02-13T11:01:32.600Z,31.65
2018-02-13T11:03:59.442Z,31.02
2018-02-13T11:06:26.485Z,29.40
2018-02-13T11:08:53.642Z,29.60
2018-02-13T11:11:20.458Z,34.20
2018-02-13T11:13:47.525Z,31.67
2018-02-13T11:16:14.577Z,27.60
2018-02-13T11:18:41.422Z,27.60
2018-02-13T11:21:08.583Z,28.58
2018-02-13T11:23:35.393Z,26.87
2018-02-13T11:26:02.216Z,27.95
2018-02-13T11:28:29.310Z,28.08
2018-02-13T11:30:56.118Z,24.27
2018-02-13T11:33:23.193Z,25.23
2018-02-13T11:35:50.237Z,26.70
2018-02-13T11:38:17.075Z,23.10
2018-02-13T11:40:43.891Z,28.73
2018-02-13T11:43:10.973Z,26.87
2018-02-13T11:45:37.834Z,29.98
2018-02-13T11:48:04.972Z,27.75
2018-02-13T11:50:31.808Z,30.95
2018-02-13T11:52:58.861Z,24.85
2018-02-13T11:55:25.669Z,24.75
2018-02-13T11:57:52.457Z,25.52
2018-02-13T12:00:19.279Z,27.57
2018-02-13T12:02:46.078Z,26.92
2018-02-13T12:05:12.915Z,23.62
2018-02-13T12:07:40.140Z,27.53
2018-02-13T12:10:06.962Z,26.80
2018-02-13T12:12:33.783Z,24.73
2018-02-13T12:15:00.968Z,28.15
2018-02-13T12:17:27.753Z,24.02
2018-02-13T12:19:54.854Z,23.02
2018-02-13T12:22:21.698Z,24.92
2018-02-13T12:24:48.489Z,25.12
2018-02-13T12:27:15.563Z,24.90
2018-02-13T12:29:42.638Z,18.85
2018-02-13T12:32:09.681Z,25.58
2018-02-13T12:34:36.505Z,25.73
2018-02-13T12:37:03.679Z,22.90
2018-02-13T12:39:30.505Z,21.33
2018-02-13T12:41:57.358Z,19.17
2018-02-13T12:44:24.410Z,21.58
2018-02-13T12:46:51.205Z,20.17
2018-02-13T12:49:18.055Z,17.77
2018-02-13T12:51:44.882Z,21.65
2018-02-13T12:54:11.990Z,19.52
2018-02-13T12:56:38.777Z,17.45
2018-02-13T12:59:05.882Z,21.58
2018-02-13T13:01:32.698Z,18.48
2018-02-13T13:03:59.769Z,18.05
2018-02-13T13:06:26.606Z,20.05
2018-02-13T13:08:53.401Z,18.85
2018-02-13T13:11:20.305Z,23.70
2018-02-13T13:13:47.098Z,17.52
2018-02-13T13:16:13.921Z,17.42
2018-02-13T13:18:41.035Z,19.27
2018-02-13T13:21:07.823Z,18.37
2018-02-13T13:23:34.645Z,16.70
2018-02-13T13:26:01.462Z,22.00
2018-02-13T13:28:28.509Z,15.60
2018-02-13T13:30:55.557Z,18.70
2018-02-13T13:33:22.383Z,17.42
2018-02-13T13:35:49.222Z,20.90
2018-02-13T13:38:16.005Z,15.10
2018-02-13T13:40:42.817Z,19.23
2018-02-13T13:43:09.667Z,15.63
2018-02-13T13:45:36.726Z,17.87
2018-02-13T13:48:03.522Z,20.00
2018-02-13T13:50:30.345Z,15.35
2018-02-13T13:52:57.392Z,15.10
2018-02-13T13:55:24.506Z,18.80
2018-02-13T13:57:51.310Z,15.55
2018-02-13T14:00:18.151Z,18.02
2018-02-13T14:02:45.238Z,17.25
2018-02-13T14:07:56.517Z,16.17
2018-02-13T14:10:23.370Z,20.87
2018-02-13T14:12:50.208Z,16.85
2018-02-13T14:15:17.385Z,16.20
2018-02-13T14:17:44.230Z,24.50
2018-02-13T14:20:11.379Z,27.30
2018-02-13T14:22:38.263Z,16.92
2018-02-13T14:25:05.116Z,17.27
2018-02-13T14:27:31.922Z,24.83
2018-02-13T14:29:58.796Z,18.23
2018-02-13T14:32:25.902Z,15.60
2018-02-13T14:34:52.739Z,24.65
2018-02-13T14:37:19.569Z,14.77
2018-02-13T14:39:46.407Z,15.43
2018-02-13T14:42:13.232Z,14.82
2018-02-13T14:44:40.091Z,16.05
2018-02-13T14:47:06.919Z,13.98
2018-02-13T14:49:33.772Z,14.50
2018-02-13T14:52:00.624Z,15.10
2018-02-13T14:54:27.436Z,14.15
2018-02-13T14:56:54.263Z,15.37
2018-02-13T14:59:21.131Z,13.88
2018-02-13T15:01:47.943Z,14.85
2018-02-13T15:04:15.069Z,19.65
2018-02-13T15:06:42.221Z,16.70
2018-02-13T15:09:09.366Z,13.50
2018-02-13T15:11:36.519Z,14.45
2018-02-13T15:14:03.672Z,9.90
2018-02-13T15:16:30.527Z,14.50
2018-02-13T15:18:57.664Z,9.38
2018-02-13T15:21:24.810Z,12.57
2018-02-13T15:23:51.958Z,12.63
2018-02-13T15:26:18.880Z,13.87
2018-02-13T15:28:45.744Z,12.23
2018-02-13T15:31:12.571Z,12.27
2018-02-13T15:33:39.436Z,10.57
2018-02-13T15:36:06.266Z,15.90
2018-02-13T15:38:33.132Z,16.17
2018-02-13T15:41:00.280Z,14.50
2018-02-13T15:43:27.151Z,16.48
2018-02-13T15:45:54.011Z,14.98
2018-02-13T15:48:20.863Z,16.42
2018-02-13T15:50:47.953Z,15.20
2018-02-13T15:53:14.824Z,18.15
2018-02-13T15:55:41.677Z,17.77
2018-02-13T15:58:08.529Z,15.20
2018-02-13T16:00:35.413Z,15.15
2018-02-13T16:03:02.236Z,11.98
2018-02-13T16:05:29.087Z,13.15
2018-02-13T16:07:56.371Z,15.13
2018-02-13T16:10:23.224Z,16.77
2018-02-13T16:12:50.067Z,21.50
2018-02-13T16:15:16.886Z,22.25
2018-02-13T16:17:43.715Z,16.08
2018-02-13T16:20:10.567Z,15.85
2018-02-13T16:22:37.371Z,18.73
2018-02-13T16:25:04.224Z,16.83
2018-02-13T16:27:31.054Z,14.45
2018-02-13T16:29:57.875Z,17.55
2018-02-13T16:32:25.015Z,14.90
2018-02-13T16:34:51.839Z,14.20
2018-02-13T16:37:18.683Z,17.87
2018-02-13T16:39:45.532Z,15.02
2018-02-13T16:42:12.682Z,14.02
2018-02-13T16:44:39.498Z,14.27
2018-02-13T16:47:06.339Z,12.87
2018-02-13T16:49:33.530Z,14.60
2018-02-13T16:52:00.341Z,14.93
2018-02-13T16:54:27.200Z,18.67
2018-02-13T16:56:54.271Z,19.03
2018-02-13T16:59:21.094Z,13.25
2018-02-13T17:01:48.247Z,13.32
2018-02-13T17:04:15.079Z,15.90
2018-02-13T17:06:41.919Z,18.42
2018-02-13T17:09:08.776Z,18.17
2018-02-13T17:11:35.927Z,18.55
2018-02-13T17:14:02.812Z,18.87
2018-02-13T17:16:29.927Z,14.23
2018-02-13T17:18:57.073Z,18.17
2018-02-13T17:21:23.891Z,14.25
2018-02-13T17:23:51.128Z,17.05
2018-02-13T17:26:17.926Z,18.67
2018-02-13T17:28:44.776Z,18.23
2018-02-13T17:31:11.664Z,19.73
2018-02-13T17:33:38.544Z,15.38
2018-02-13T17:36:05.373Z,20.65
2018-02-13T17:38:32.224Z,18.00
2018-02-13T17:40:59.376Z,19.42
2018-02-13T17:43:26.527Z,20.40
2018-02-13T17:45:53.397Z,17.30
2018-02-13T17:48:20.263Z,15.93
2018-02-13T17:50:47.368Z,19.12
2018-02-13T17:53:14.520Z,16.33
2018-02-13T17:55:41.396Z,18.37
2018-02-13T17:58:08.240Z,14.40
2018-02-13T18:00:35.055Z,16.58
2018-02-13T18:03:02.194Z,15.75
2018-02-13T18:05:29.242Z,20.08
2018-02-13T18:07:56.294Z,14.50
2018-02-13T18:10:23.200Z,12.90
2018-02-13T18:12:50.283Z,18.27
2018-02-13T18:15:17.129Z,16.33
2018-02-13T18:17:43.970Z,15.00
2018-02-13T18:20:10.786Z,15.25
2018-02-13T18:22:37.602Z,13.02
2018-02-13T18:25:04.446Z,15.15
2018-02-13T18:27:31.315Z,15.27
2018-02-13T18:29:58.127Z,16.48
2018-02-13T18:32:25.342Z,17.27
2018-02-13T18:34:52.389Z,24.15
2018-02-13T18:37:19.248Z,26.35
2018-02-13T18:39:46.091Z,25.60
2018-02-13T18:42:12.928Z,21.42
2018-02-13T18:44:39.787Z,18.83
2018-02-13T18:47:06.907Z,19.90
2018-02-13T18:49:34.061Z,15.93
2018-02-13T18:52:00.875Z,13.67
2018-02-13T18:54:27.754Z,18.08
2018-02-13T18:56:54.621Z,16.13
2018-02-13T18:59:21.459Z,19.48
2018-02-13T19:01:48.582Z,18.70
2018-02-13T19:04:15.400Z,15.35
2018-02-13T19:06:42.260Z,13.70
2018-02-13T19:09:09.126Z,16.00
2018-02-13T19:11:35.972Z,11.77
2018-02-13T19:14:03.102Z,17.17
2018-02-13T19:16:29.966Z,17.95
2018-02-13T19:18:57.123Z,14.20
2018-02-13T19:21:23.987Z,17.27
2018-02-13T19:23:50.830Z,19.23
2018-02-13T19:26:17.938Z,18.15
2018-02-13T19:28:44.815Z,11.75
2018-02-13T19:31:11.682Z,16.48
2018-02-13T19:33:38.503Z,16.52
2018-02-13T19:36:05.352Z,15.15
2018-02-13T19:38:32.229Z,18.00
2018-02-13T19:40:59.301Z,14.57
2018-02-13T19:43:26.107Z,14.48
2018-02-13T19:45:52.984Z,15.45
2018-02-13T19:48:19.831Z,15.73
2018-02-13T19:50:46.658Z,17.83
2018-02-13T19:53:13.537Z,19.50
2018-02-13T19:55:40.388Z,16.58
2018-02-13T19:58:07.223Z,16.08
2018-02-13T20:00:34.068Z,16.52
2018-02-13T20:03:00.879Z,18.40
2018-02-13T20:05:28.038Z,20.42
2018-02-13T20:07:54.887Z,18.67
2018-02-13T20:10:22.030Z,19.58
2018-02-13T20:12:48.910Z,21.58
2018-02-13T20:15:15.794Z,14.40
2018-02-13T20:17:42.611Z,13.25
2018-02-13T20:20:09.436Z,16.80
2018-02-13T20:22:36.554Z,18.98
2018-02-13T20:25:03.401Z,16.57
2018-02-13T20:27:30.206Z,15.02
2018-02-13T20:29:57.042Z,15.13
2018-02-13T20:32:24.130Z,13.75
2018-02-13T20:34:51.283Z,17.07
2018-02-13T20:37:18.140Z,17.20
2018-02-13T20:39:44.959Z,15.80
2018-02-13T20:42:12.020Z,16.10
2018-02-13T20:44:38.903Z,17.05
2018-02-13T20:47:05.768Z,16.15
2018-02-13T20:49:32.608Z,20.80
2018-02-13T20:51:59.480Z,21.33
2018-02-13T20:54:26.338Z,16.00
2018-02-13T20:56:53.170Z,17.30
2018-02-13T20:59:20.019Z,14.90
2018-02-13T21:01:47.171Z,16.30
2018-02-13T21:04:13.994Z,17.05
2018-02-13T21:06:40.839Z,16.25
2018-02-13T21:09:07.741Z,15.35
2018-02-13T21:11:34.619Z,17.20
2018-02-13T21:14:01.467Z,17.45
2018-02-13T21:16:28.319Z,14.82
2018-02-13T21:18:55.141Z,16.70
2018-02-13T21:21:21.990Z,16.95
2018-02-13T21:23:48.872Z,15.65
2018-02-13T21:26:15.699Z,14.70
2018-02-13T21:28:42.525Z,15.43
2018-02-13T21:31:09.336Z,17.20
2018-02-13T21:33:36.216Z,13.00
2018-02-13T21:36:03.077Z,13.55
2018-02-13T21:38:30.228Z,17.05
2018-02-13T21:40:57.043Z,16.20
2018-02-13T21:43:23.923Z,18.75
2018-02-13T21:45:50.775Z,15.20
2018-02-13T21:48:17.674Z,18.37
2018-02-13T21:50:44.551Z,15.57
2018-02-13T21:53:11.703Z,17.20
2018-02-13T21:55:38.592Z,13.05
2018-02-13T21:58:05.708Z,14.00
2018-02-13T22:00:32.856Z,13.70
2018-02-13T22:02:59.658Z,13.85
2018-02-13T22:05:26.529Z,12.93
2018-02-13T22:07:53.675Z,17.23
2018-02-13T22:10:20.830Z,16.20
2018-02-13T22:12:47.661Z,14.93
2018-02-13T22:15:14.504Z,17.45
2018-02-13T22:17:41.344Z,14.00
2018-02-13T22:20:08.507Z,15.43
2018-02-13T22:22:35.351Z,11.20
2018-02-13T22:25:02.568Z,19.42
2018-02-13T22:27:29.433Z,13.90
2018-02-13T22:29:56.298Z,28.40
2018-02-13T22:32:23.123Z,21.33
2018-02-13T22:34:50.020Z,15.48
2018-02-13T22:37:16.888Z,15.15
2018-02-13T22:39:43.711Z,17.35
2018-02-13T22:42:10.814Z,14.98
2018-02-13T22:44:37.962Z,15.63
2018-02-13T22:47:04.783Z,19.95
2018-02-13T22:49:31.655Z,19.08
2018-02-13T22:51:58.499Z,18.83
2018-02-13T22:54:26.091Z,15.50
2018-02-13T22:56:52.962Z,18.27
2018-02-13T22:59:19.815Z,14.90
2018-02-13T23:01:46.692Z,22.50
2018-02-13T23:04:13.557Z,18.42
2018-02-13T23:06:40.387Z,17.52
2018-02-13T23:09:07.219Z,21.80
2018-02-13T23:11:34.059Z,16.62
2018-02-13T23:14:00.919Z,17.85
2018-02-13T23:16:27.750Z,13.98
2018-02-13T23:18:54.609Z,19.23
2018-02-13T23:21:21.738Z,16.60
2018-02-13T23:23:48.560Z,17.27
2018-02-13T23:26:15.732Z,18.25
2018-02-13T23:28:42.584Z,15.73
2018-02-13T23:31:09.402Z,19.27
2018-02-13T23:33:36.242Z,18.57
2018-02-13T23:36:03.060Z,16.58
2018-02-13T23:38:30.155Z,19.33
2018-02-13T23:40:57.019Z,18.15
2018-02-13T23:43:23.864Z,16.00
2018-02-13T23:45:50.670Z,14.57
2018-02-13T23:48:17.502Z,15.43
2018-02-13T23:50:44.350Z,18.37
2018-02-13T23:53:11.159Z,13.57
2018-02-13T23:55:38.045Z,15.77
2018-02-13T23:58:04.889Z,13.65
